Ingeniero Jacobacci, Argentina
Current Conditions -  °F | °C
As of 8:00 PM on Tuesday 25 Nov 2014 (Local Time) from SAZS Reporting Station
Clear Clear  
Wind Chill: 57°   Ceiling: Unl
Heat Index: 57°   Visibility: 6mi
Dew Point: 37°   Wind: 23mph
Humidity: 48%   Direction: 320°NW
Pressure: 30"   Gusts: NA
Location:  41.43°S, 69.47°W
Report Text: SAZS 252300Z 32020KT CAVOK 14/03 Q1016
Loading
Personal Weather Stations






























Interactive Weather Map New forecast layout! Learn more

10-Day Weather Forecast

Advertisements
Track Severe Weather on mobile